Quincy, Illinois
Current Conditions -  °F | °C
As of 2:54 PM on Tuesday 21 Oct 2014 (Local Time) from KUIN Reporting Station
Clear Clear  
Wind Chill: 17°   Ceiling: Unl
Heat Index: 17°   Visibility: 10mi
Dew Point:   Wind: 6mph
Humidity: 46%   Direction: 30°NNE
Pressure: 30.12"   Gusts: NA
Location:  39.94°N, 91.39°W
Report Text: KUIN 211954Z AUTO 03005KT 10SM CLR 17/06 A3012 RMK AO2 SLP200 T01720056
Loading
Personal Weather Stations






























Interactive Weather Map New forecast layout! Learn more

10-Day Weather Forecast

Advertisements
Track Severe Weather on mobile